sensor_id;sensor_type;location;lat;lon;timestamp;temperature;humidity
44647;DHT22;56315;-33.902;151.160;2023-06-14T00:02:42;23.80;88.90
44647;DHT22;56315;-33.902;151.160;2023-06-14T00:05:09;24.90;88.60
44647;DHT22;56315;-33.902;151.160;2023-06-14T00:08:13;23.30;87.50
44647;DHT22;56315;-33.902;151.160;2023-06-14T00:10:40;23.70;87.90
44647;DHT22;56315;-33.902;151.160;2023-06-14T00:16:30;24.40;87.00
44647;DHT22;56315;-33.902;151.160;2023-06-14T00:18:59;25.60;85.70
44647;DHT22;56315;-33.902;151.160;2023-06-14T00:21:26;25.80;86.00
44647;DHT22;56315;-33.902;151.160;2023-06-14T00:26:58;24.70;86.30
44647;DHT22;56315;-33.902;151.160;2023-06-14T00:32:11;25.50;84.70
44647;DHT22;56315;-33.902;151.160;2023-06-14T00:35:14;26.20;82.80
44647;DHT22;56315;-33.902;151.160;2023-06-14T00:37:42;26.10;84.10
44647;DHT22;56315;-33.902;151.160;2023-06-14T00:40:09;26.00;83.60
44647;DHT22;56315;-33.902;151.160;2023-06-14T00:42:54;25.00;83.10
44647;DHT22;56315;-33.902;151.160;2023-06-14T00:45:40;25.00;83.20
44647;DHT22;56315;-33.902;151.160;2023-06-14T00:48:08;25.10;84.30
44647;DHT22;56315;-33.902;151.160;2023-06-14T00:51:12;25.50;82.50
44647;DHT22;56315;-33.902;151.160;2023-06-14T00:53:58;24.70;85.40
44647;DHT22;56315;-33.902;151.160;2023-06-14T00:59:29;24.40;84.90
44647;DHT22;56315;-33.902;151.160;2023-06-14T01:01:57;25.50;82.80
44647;DHT22;56315;-33.902;151.160;2023-06-14T01:04:24;25.60;83.60
44647;DHT22;56315;-33.902;151.160;2023-06-14T01:13:21;26.20;81.30
44647;DHT22;56315;-33.902;151.160;2023-06-14T01:15:51;26.20;80.20
44647;DHT22;56315;-33.902;151.160;2023-06-14T01:18:18;26.60;79.80
44647;DHT22;56315;-33.902;151.160;2023-06-14T01:26:37;26.70;78.20
44647;DHT22;56315;-33.902;151.160;2023-06-14T01:29:05;25.40;79.10
44647;DHT22;56315;-33.902;151.160;2023-06-14T01:31:34;26.90;78.20
44647;DHT22;56315;-33.902;151.160;2023-06-14T01:34:37;26.40;77.30
44647;DHT22;56315;-33.902;151.160;2023-06-14T01:37:05;25.90;78.00
44647;DHT22;56315;-33.902;151.160;2023-06-14T01:42:18;26.10;76.40
44647;DHT22;56315;-33.902;151.160;2023-06-14T01:45:06;26.50;78.50
44647;DHT22;56315;-33.902;151.160;2023-06-14T01:47:52;26.50;77.90
44647;DHT22;56315;-33.902;151.160;2023-06-14T01:50:22;27.40;75.80
44647;DHT22;56315;-33.902;151.160;2023-06-14T01:52:49;27.50;75.70
44647;DHT22;56315;-33.902;151.160;2023-06-14T01:55:16;27.60;75.20
44647;DHT22;56315;-33.902;151.160;2023-06-14T01:57:44;27.60;75.30
44647;DHT22;56315;-33.902;151.160;2023-06-14T02:00:29;28.10;74.50
44647;DHT22;56315;-33.902;151.160;2023-06-14T02:02:56;27.90;73.90
44647;DHT22;56315;-33.902;151.160;2023-06-14T02:05:23;27.30;74.10
44647;DHT22;56315;-33.902;151.160;2023-06-14T02:07:50;27.40;75.90
44647;DHT22;56315;-33.902;151.160;2023-06-14T02:13:03;25.70;74.30
44647;DHT22;56315;-33.902;151.160;2023-06-14T02:15:30;25.70;75.40
44647;DHT22;56315;-33.902;151.160;2023-06-14T02:18:02;26.50;73.80
44647;DHT22;56315;-33.902;151.160;2023-06-14T02:23:33;25.80;74.60
44647;DHT22;56315;-33.902;151.160;2023-06-14T02:26:01;25.20;74.80
44647;DHT22;56315;-33.902;151.160;2023-06-14T02:28:29;24.30;76.40
44647;DHT22;56315;-33.902;151.160;2023-06-14T02:30:56;25.50;76.80
44647;DHT22;56315;-33.902;151.160;2023-06-14T02:36:27;26.50;74.20
44647;DHT22;56315;-33.902;151.160;2023-06-14T02:39:12;26.10;74.30
44647;DHT22;56315;-33.902;151.160;2023-06-14T02:41:39;26.20;75.30
44647;DHT22;56315;-33.902;151.160;2023-06-14T02:44:25;25.00;73.90
44647;DHT22;56315;-33.902;151.160;2023-06-14T02:47:29;23.50;76.90
44647;DHT22;56315;-33.902;151.160;2023-06-14T02:55:47;25.80;73.90
44647;DHT22;56315;-33.902;151.160;2023-06-14T02:58:15;27.20;73.90
44647;DHT22;56315;-33.902;151.160;2023-06-14T03:04:22;26.50;72.40
44647;DHT22;56315;-33.902;151.160;2023-06-14T03:09:39;26.50;73.50
44647;DHT22;56315;-33.902;151.160;2023-06-14T03:12:07;25.80;72.40
44647;DHT22;56315;-33.902;151.160;2023-06-14T03:14:52;26.70;72.60
44647;DHT22;56315;-33.902;151.160;2023-06-14T03:17:38;25.60;72.40
44647;DHT22;56315;-33.902;151.160;2023-06-14T03:20:05;24.30;75.00
44647;DHT22;56315;-33.902;151.160;2023-06-14T03:22:33;23.90;74.90
44647;DHT22;56315;-33.902;151.160;2023-06-14T03:25:00;24.50;73.40
44647;DHT22;56315;-33.902;151.160;2023-06-14T03:30:15;25.50;72.70
44647;DHT22;56315;-33.902;151.160;2023-06-14T03:32:43;26.00;72.10
44647;DHT22;56315;-33.902;151.160;2023-06-14T03:35:10;25.70;71.80
44647;DHT22;56315;-33.902;151.160;2023-06-14T03:43:45;26.90;71.10
44647;DHT22;56315;-33.902;151.160;2023-06-14T03:46:12;27.00;71.40
44647;DHT22;56315;-33.902;151.160;2023-06-14T03:48:39;25.40;71.10
44647;DHT22;56315;-33.902;151.160;2023-06-14T03:51:24;26.30;71.40
44647;DHT22;56315;-33.902;151.160;2023-06-14T03:53:51;26.20;70.70
44647;DHT22;56315;-33.902;151.160;2023-06-14T03:56:19;26.20;72.40
44647;DHT22;56315;-33.902;151.160;2023-06-14T03:58:46;26.10;71.00
44647;DHT22;56315;-33.902;151.160;2023-06-14T04:01:13;25.90;69.80
44647;DHT22;56315;-33.902;151.160;2023-06-14T04:03:59;25.00;72.00
44647;DHT22;56315;-33.902;151.160;2023-06-14T04:06:45;26.50;71.60
44647;DHT22;56315;-33.902;151.160;2023-06-14T04:09:14;25.70;71.90
44647;DHT22;56315;-33.902;151.160;2023-06-14T04:14:45;24.80;72.50
44647;DHT22;56315;-33.902;151.160;2023-06-14T04:17:12;21.90;74.90
44647;DHT22;56315;-33.902;151.160;2023-06-14T04:19:57;20.70;77.20
44647;DHT22;56315;-33.902;151.160;2023-06-14T04:22:26;19.40;77.30
44647;DHT22;56315;-33.902;151.160;2023-06-14T04:24:58;19.30;79.00
44647;DHT22;56315;-33.902;151.160;2023-06-14T04:27:29;19.30;78.00
44647;DHT22;56315;-33.902;151.160;2023-06-14T04:30:15;19.10;78.10
44647;DHT22;56315;-33.902;151.160;2023-06-14T04:32:43;19.00;78.20
44647;DHT22;56315;-33.902;151.160;2023-06-14T04:37:58;18.70;78.80
44647;DHT22;56315;-33.902;151.160;2023-06-14T04:43:12;18.50;77.90
44647;DHT22;56315;-33.902;151.160;2023-06-14T04:45:57;18.40;79.00
44647;DHT22;56315;-33.902;151.160;2023-06-14T04:48:43;18.30;78.10
44647;DHT22;56315;-33.902;151.160;2023-06-14T04:51:10;18.20;80.20
44647;DHT22;56315;-33.902;151.160;2023-06-14T04:53:37;18.20;79.60
44647;DHT22;56315;-33.902;151.160;2023-06-14T04:56:22;18.20;78.20
44647;DHT22;56315;-33.902;151.160;2023-06-14T04:58:51;18.10;78.20
44647;DHT22;56315;-33.902;151.160;2023-06-14T05:01:55;18.00;79.10
44647;DHT22;56315;-33.902;151.160;2023-06-14T05:07:45;17.80;79.30
44647;DHT22;56315;-33.902;151.160;2023-06-14T05:13:34;17.60;79.40
44647;DHT22;56315;-33.902;151.160;2023-06-14T05:16:38;17.50;78.70
44647;DHT22;56315;-33.902;151.160;2023-06-14T05:19:06;17.50;79.70
44647;DHT22;56315;-33.902;151.160;2023-06-14T05:21:33;17.40;80.00
44647;DHT22;56315;-33.902;151.160;2023-06-14T05:24:19;17.50;81.40
44647;DHT22;56315;-33.902;151.160;2023-06-14T05:27:04;17.40;81.50
44647;DHT22;56315;-33.902;151.160;2023-06-14T05:32:40;17.30;81.00
44647;DHT22;56315;-33.902;151.160;2023-06-14T05:35:08;17.20;80.80
44647;DHT22;56315;-33.902;151.160;2023-06-14T05:37:35;17.10;79.90
44647;DHT22;56315;-33.902;151.160;2023-06-14T05:40:20;17.10;79.40
44647;DHT22;56315;-33.902;151.160;2023-06-14T05:42:47;17.00;80.30
44647;DHT22;56315;-33.902;151.160;2023-06-14T05:45:15;16.90;81.10
44647;DHT22;56315;-33.902;151.160;2023-06-14T05:51:03;16.80;82.10
44647;DHT22;56315;-33.902;151.160;2023-06-14T05:53:48;16.70;82.80
44647;DHT22;56315;-33.902;151.160;2023-06-14T05:56:17;16.70;82.10
44647;DHT22;56315;-33.902;151.160;2023-06-14T06:05:10;16.40;82.40
44647;DHT22;56315;-33.902;151.160;2023-06-14T06:07:56;16.30;83.10
44647;DHT22;56315;-33.902;151.160;2023-06-14T06:10:23;16.20;83.00
44647;DHT22;56315;-33.902;151.160;2023-06-14T06:12:50;16.10;83.20
44647;DHT22;56315;-33.902;151.160;2023-06-14T06:18:22;15.90;84.90
44647;DHT22;56315;-33.902;151.160;2023-06-14T06:20:49;15.80;84.10
44647;DHT22;56315;-33.902;151.160;2023-06-14T06:23:34;15.80;85.20
44647;DHT22;56315;-33.902;151.160;2023-06-14T06:26:02;15.60;86.20
44647;DHT22;56315;-33.902;151.160;2023-06-14T06:34:18;15.40;86.40
44647;DHT22;56315;-33.902;151.160;2023-06-14T06:40:07;15.20;86.70
44647;DHT22;56315;-33.902;151.160;2023-06-14T06:42:35;15.20;86.70
44647;DHT22;56315;-33.902;151.160;2023-06-14T06:45:20;15.10;86.10
44647;DHT22;56315;-33.902;151.160;2023-06-14T06:51:09;15.00;86.70
44647;DHT22;56315;-33.902;151.160;2023-06-14T06:56:22;14.90;85.80
44647;DHT22;56315;-33.902;151.160;2023-06-14T07:01:53;14.80;86.70
44647;DHT22;56315;-33.902;151.160;2023-06-14T07:04:39;14.60;87.40
44647;DHT22;56315;-33.902;151.160;2023-06-14T07:07:24;14.50;87.90
44647;DHT22;56315;-33.902;151.160;2023-06-14T07:10:10;14.40;88.20
44647;DHT22;56315;-33.902;151.160;2023-06-14T07:12:55;14.40;89.10
44647;DHT22;56315;-33.902;151.160;2023-06-14T07:18:26;14.20;89.80
44647;DHT22;56315;-33.902;151.160;2023-06-14T07:20:54;14.10;89.40
44647;DHT22;56315;-33.902;151.160;2023-06-14T07:23:22;14.10;90.20
44647;DHT22;56315;-33.902;151.160;2023-06-14T07:25:49;14.10;90.20
44647;DHT22;56315;-33.902;151.160;2023-06-14T07:28:17;14.10;89.90
44647;DHT22;56315;-33.902;151.160;2023-06-14T07:30:45;13.90;90.60
44647;DHT22;56315;-33.902;151.160;2023-06-14T07:33:12;13.90;90.40
44647;DHT22;56315;-33.902;151.160;2023-06-14T07:35:39;14.00;90.20
44647;DHT22;56315;-33.902;151.160;2023-06-14T07:38:07;14.00;90.30
44647;DHT22;56315;-33.902;151.160;2023-06-14T07:40:34;14.00;90.00
44647;DHT22;56315;-33.902;151.160;2023-06-14T07:43:01;13.90;90.10
44647;DHT22;56315;-33.902;151.160;2023-06-14T07:45:28;13.90;90.20
44647;DHT22;56315;-33.902;151.160;2023-06-14T07:47:55;13.80;90.60
44647;DHT22;56315;-33.902;151.160;2023-06-14T07:50:23;13.60;90.90
44647;DHT22;56315;-33.902;151.160;2023-06-14T07:52:50;13.50;91.00
44647;DHT22;56315;-33.902;151.160;2023-06-14T07:55:18;13.40;91.30
44647;DHT22;56315;-33.902;151.160;2023-06-14T07:57:45;13.40;91.10
44647;DHT22;56315;-33.902;151.160;2023-06-14T08:00:13;13.40;91.20
44647;DHT22;56315;-33.902;151.160;2023-06-14T08:02:45;13.30;91.30
44647;DHT22;56315;-33.902;151.160;2023-06-14T08:05:13;13.30;91.70
44647;DHT22;56315;-33.902;151.160;2023-06-14T08:07:40;13.10;92.50
44647;DHT22;56315;-33.902;151.160;2023-06-14T08:10:09;13.00;92.50
44647;DHT22;56315;-33.902;151.160;2023-06-14T08:12:37;13.00;93.60
44647;DHT22;56315;-33.902;151.160;2023-06-14T08:15:05;12.90;93.30
44647;DHT22;56315;-33.902;151.160;2023-06-14T08:17:32;12.60;93.40
44647;DHT22;56315;-33.902;151.160;2023-06-14T08:19:59;12.40;94.30
44647;DHT22;56315;-33.902;151.160;2023-06-14T08:22:26;12.30;95.20
44647;DHT22;56315;-33.902;151.160;2023-06-14T08:24:58;12.30;95.30
44647;DHT22;56315;-33.902;151.160;2023-06-14T08:27:25;12.20;95.40
44647;DHT22;56315;-33.902;151.160;2023-06-14T08:29:53;12.00;95.50
44647;DHT22;56315;-33.902;151.160;2023-06-14T08:32:20;12.00;95.80
44647;DHT22;56315;-33.902;151.160;2023-06-14T08:34:47;12.00;96.40
44647;DHT22;56315;-33.902;151.160;2023-06-14T08:37:15;12.00;95.90
44647;DHT22;56315;-33.902;151.160;2023-06-14T08:39:42;12.00;96.20
44647;DHT22;56315;-33.902;151.160;2023-06-14T08:42:10;12.00;96.20
44647;DHT22;56315;-33.902;151.160;2023-06-14T08:44:37;12.00;96.50
44647;DHT22;56315;-33.902;151.160;2023-06-14T08:47:07;12.00;97.80
44647;DHT22;56315;-33.902;151.160;2023-06-14T08:49:36;12.00;96.80
44647;DHT22;56315;-33.902;151.160;2023-06-14T08:52:05;12.00;96.20
44647;DHT22;56315;-33.902;151.160;2023-06-14T08:54:37;11.80;96.50
44647;DHT22;56315;-33.902;151.160;2023-06-14T08:57:13;11.70;97.40
44647;DHT22;56315;-33.902;151.160;2023-06-14T08:59:47;11.70;97.10
44647;DHT22;56315;-33.902;151.160;2023-06-14T09:02:20;11.60;97.30
44647;DHT22;56315;-33.902;151.160;2023-06-14T09:04:48;11.60;97.60
44647;DHT22;56315;-33.902;151.160;2023-06-14T09:07:18;11.60;97.30
44647;DHT22;56315;-33.902;151.160;2023-06-14T09:09:45;11.60;97.30
44647;DHT22;56315;-33.902;151.160;2023-06-14T09:12:13;11.60;97.30
44647;DHT22;56315;-33.902;151.160;2023-06-14T09:14:40;11.60;97.50
44647;DHT22;56315;-33.902;151.160;2023-06-14T09:17:08;11.60;97.30
44647;DHT22;56315;-33.902;151.160;2023-06-14T09:19:40;11.70;97.30
44647;DHT22;56315;-33.902;151.160;2023-06-14T09:22:07;11.70;97.40
44647;DHT22;56315;-33.902;151.160;2023-06-14T09:24:38;11.70;97.70
44647;DHT22;56315;-33.902;151.160;2023-06-14T09:27:05;11.60;97.40
44647;DHT22;56315;-33.902;151.160;2023-06-14T09:29:33;11.70;97.60
44647;DHT22;56315;-33.902;151.160;2023-06-14T09:32:00;11.60;97.80
44647;DHT22;56315;-33.902;151.160;2023-06-14T09:34:27;11.60;98.60
44647;DHT22;56315;-33.902;151.160;2023-06-14T09:36:54;11.60;98.20
44647;DHT22;56315;-33.902;151.160;2023-06-14T09:39:22;11.50;98.40
44647;DHT22;56315;-33.902;151.160;2023-06-14T09:41:49;11.50;98.60
44647;DHT22;56315;-33.902;151.160;2023-06-14T09:44:16;11.50;99.10
44647;DHT22;56315;-33.902;151.160;2023-06-14T09:46:44;11.40;98.70
44647;DHT22;56315;-33.902;151.160;2023-06-14T09:49:12;11.40;98.80
44647;DHT22;56315;-33.902;151.160;2023-06-14T09:51:46;11.50;98.40
44647;DHT22;56315;-33.902;151.160;2023-06-14T09:54:17;11.50;99.40
44647;DHT22;56315;-33.902;151.160;2023-06-14T09:56:48;11.40;99.90
44647;DHT22;56315;-33.902;151.160;2023-06-14T09:59:21;11.30;99.40
44647;DHT22;56315;-33.902;151.160;2023-06-14T10:01:57;11.30;99.70
44647;DHT22;56315;-33.902;151.160;2023-06-14T10:04:30;11.20;99.90
44647;DHT22;56315;-33.902;151.160;2023-06-14T10:06:59;11.20;99.90
44647;DHT22;56315;-33.902;151.160;2023-06-14T10:09:28;11.00;99.90
44647;DHT22;56315;-33.902;151.160;2023-06-14T10:11:56;10.90;99.90
44647;DHT22;56315;-33.902;151.160;2023-06-14T10:14:24;10.90;99.90
44647;DHT22;56315;-33.902;151.160;2023-06-14T10:17:12;10.80;99.90
44647;DHT22;56315;-33.902;151.160;2023-06-14T10:23:06;10.80;99.90
44647;DHT22;56315;-33.902;151.160;2023-06-14T10:25:35;10.80;99.90
44647;DHT22;56315;-33.902;151.160;2023-06-14T10:30:32;10.80;99.90
44647;DHT22;56315;-33.902;151.160;2023-06-14T10:33:06;10.80;99.90
44647;DHT22;56315;-33.902;151.160;2023-06-14T10:35:35;10.80;99.90
44647;DHT22;56315;-33.902;151.160;2023-06-14T10:38:12;10.70;99.90
44647;DHT22;56315;-33.902;151.160;2023-06-14T10:40:40;10.70;99.90
44647;DHT22;56315;-33.902;151.160;2023-06-14T10:43:24;10.70;99.90
44647;DHT22;56315;-33.902;151.160;2023-06-14T10:46:19;10.70;99.90
44647;DHT22;56315;-33.902;151.160;2023-06-14T10:48:49;10.60;99.90
44647;DHT22;56315;-33.902;151.160;2023-06-14T10:51:24;10.60;99.90
44647;DHT22;56315;-33.902;151.160;2023-06-14T10:53:53;10.50;99.90
44647;DHT22;56315;-33.902;151.160;2023-06-14T10:56:30;10.40;99.90
44647;DHT22;56315;-33.902;151.160;2023-06-14T10:58:58;10.40;99.90
44647;DHT22;56315;-33.902;151.160;2023-06-14T11:02:10;10.40;99.90
44647;DHT22;56315;-33.902;151.160;2023-06-14T11:04:55;10.50;99.90
44647;DHT22;56315;-33.902;151.160;2023-06-14T11:10:46;10.50;99.90
44647;DHT22;56315;-33.902;151.160;2023-06-14T11:13:17;10.70;99.90
44647;DHT22;56315;-33.902;151.160;2023-06-14T11:15:45;10.70;99.90
44647;DHT22;56315;-33.902;151.160;2023-06-14T11:18:14;10.70;99.90
44647;DHT22;56315;-33.902;151.160;2023-06-14T11:20:45;10.60;99.90
44647;DHT22;56315;-33.902;151.160;2023-06-14T11:23:13;10.60;99.90
44647;DHT22;56315;-33.902;151.160;2023-06-14T11:25:41;10.60;99.90
44647;DHT22;56315;-33.902;151.160;2023-06-14T11:28:08;10.60;99.90
44647;DHT22;56315;-33.902;151.160;2023-06-14T11:30:36;10.80;99.90
44647;DHT22;56315;-33.902;151.160;2023-06-14T11:33:03;10.80;99.90
44647;DHT22;56315;-33.902;151.160;2023-06-14T11:35:31;10.80;99.90
44647;DHT22;56315;-33.902;151.160;2023-06-14T11:38:02;10.80;99.90
44647;DHT22;56315;-33.902;151.160;2023-06-14T11:40:29;10.80;99.90
44647;DHT22;56315;-33.902;151.160;2023-06-14T11:43:02;10.80;99.90
44647;DHT22;56315;-33.902;151.160;2023-06-14T11:45:32;10.80;99.90
44647;DHT22;56315;-33.902;151.160;2023-06-14T11:47:59;10.80;99.90
44647;DHT22;56315;-33.902;151.160;2023-06-14T11:50:27;10.70;99.90
44647;DHT22;56315;-33.902;151.160;2023-06-14T11:52:56;10.70;99.90
44647;DHT22;56315;-33.902;151.160;2023-06-14T11:55:24;10.70;99.90
44647;DHT22;56315;-33.902;151.160;2023-06-14T11:57:55;10.70;99.90
44647;DHT22;56315;-33.902;151.160;2023-06-14T12:00:25;10.80;99.90
44647;DHT22;56315;-33.902;151.160;2023-06-14T12:02:56;10.80;99.90
44647;DHT22;56315;-33.902;151.160;2023-06-14T12:05:24;11.00;99.90
44647;DHT22;56315;-33.902;151.160;2023-06-14T12:07:59;11.00;99.90
44647;DHT22;56315;-33.902;151.160;2023-06-14T12:10:26;10.80;99.90
44647;DHT22;56315;-33.902;151.160;2023-06-14T12:13:00;10.60;99.90
44647;DHT22;56315;-33.902;151.160;2023-06-14T12:15:31;10.40;99.90
44647;DHT22;56315;-33.902;151.160;2023-06-14T12:17:58;10.40;99.90
44647;DHT22;56315;-33.902;151.160;2023-06-14T12:20:30;10.30;99.90
44647;DHT22;56315;-33.902;151.160;2023-06-14T12:22:59;10.40;99.90
44647;DHT22;56315;-33.902;151.160;2023-06-14T12:25:32;10.50;99.90
44647;DHT22;56315;-33.902;151.160;2023-06-14T12:28:07;10.70;99.90
44647;DHT22;56315;-33.902;151.160;2023-06-14T12:30:35;10.60;99.90
44647;DHT22;56315;-33.902;151.160;2023-06-14T12:33:03;10.70;99.90
44647;DHT22;56315;-33.902;151.160;2023-06-14T12:35:31;10.70;99.90
44647;DHT22;56315;-33.902;151.160;2023-06-14T12:37:58;10.80;99.90
44647;DHT22;56315;-33.902;151.160;2023-06-14T12:40:25;10.80;99.90
44647;DHT22;56315;-33.902;151.160;2023-06-14T12:42:52;10.80;99.90
44647;DHT22;56315;-33.902;151.160;2023-06-14T12:45:20;10.70;99.90
44647;DHT22;56315;-33.902;151.160;2023-06-14T12:47:47;10.70;99.90
44647;DHT22;56315;-33.902;151.160;2023-06-14T12:50:14;10.60;99.90
44647;DHT22;56315;-33.902;151.160;2023-06-14T12:52:41;10.60;99.90
44647;DHT22;56315;-33.902;151.160;2023-06-14T12:55:08;10.60;99.90
44647;DHT22;56315;-33.902;151.160;2023-06-14T12:57:36;10.60;99.90
44647;DHT22;56315;-33.902;151.160;2023-06-14T13:00:05;10.60;99.90
44647;DHT22;56315;-33.902;151.160;2023-06-14T13:02:33;10.60;99.90
44647;DHT22;56315;-33.902;151.160;2023-06-14T13:05:01;10.70;99.90
44647;DHT22;56315;-33.902;151.160;2023-06-14T13:07:30;10.60;99.90
44647;DHT22;56315;-33.902;151.160;2023-06-14T13:09:57;10.50;99.90
44647;DHT22;56315;-33.902;151.160;2023-06-14T13:12:24;10.40;99.90
44647;DHT22;56315;-33.902;151.160;2023-06-14T13:14:51;10.30;99.90
44647;DHT22;56315;-33.902;151.160;2023-06-14T13:17:18;10.40;99.90
44647;DHT22;56315;-33.902;151.160;2023-06-14T13:19:46;10.20;99.90
44647;DHT22;56315;-33.902;151.160;2023-06-14T13:22:13;10.10;99.90
44647;DHT22;56315;-33.902;151.160;2023-06-14T13:24:40;10.30;99.90
44647;DHT22;56315;-33.902;151.160;2023-06-14T13:27:07;10.20;99.90
44647;DHT22;56315;-33.902;151.160;2023-06-14T13:29:35;10.00;99.90
44647;DHT22;56315;-33.902;151.160;2023-06-14T13:32:03;10.10;99.90
44647;DHT22;56315;-33.902;151.160;2023-06-14T13:34:30;10.10;99.90
44647;DHT22;56315;-33.902;151.160;2023-06-14T13:36:57;10.10;99.90
44647;DHT22;56315;-33.902;151.160;2023-06-14T13:39:27;10.00;99.90
44647;DHT22;56315;-33.902;151.160;2023-06-14T13:41:55;10.00;99.90
44647;DHT22;56315;-33.902;151.160;2023-06-14T13:44:22;10.00;99.90
44647;DHT22;56315;-33.902;151.160;2023-06-14T13:46:49;9.90;99.90
44647;DHT22;56315;-33.902;151.160;2023-06-14T13:49:16;9.70;99.90
44647;DHT22;56315;-33.902;151.160;2023-06-14T13:51:43;9.60;99.90
44647;DHT22;56315;-33.902;151.160;2023-06-14T13:54:13;9.60;99.90
44647;DHT22;56315;-33.902;151.160;2023-06-14T13:56:43;9.60;99.90
44647;DHT22;56315;-33.902;151.160;2023-06-14T13:59:10;9.60;99.90
44647;DHT22;56315;-33.902;151.160;2023-06-14T14:01:38;9.60;99.90
44647;DHT22;56315;-33.902;151.160;2023-06-14T14:04:05;9.50;99.90
44647;DHT22;56315;-33.902;151.160;2023-06-14T14:06:32;9.50;99.90
44647;DHT22;56315;-33.902;151.160;2023-06-14T14:09:00;9.50;99.90
44647;DHT22;56315;-33.902;151.160;2023-06-14T14:11:27;9.40;99.90
44647;DHT22;56315;-33.902;151.160;2023-06-14T14:13:54;9.40;99.90
44647;DHT22;56315;-33.902;151.160;2023-06-14T14:16:22;9.30;99.90
44647;DHT22;56315;-33.902;151.160;2023-06-14T14:18:49;9.30;99.90
44647;DHT22;56315;-33.902;151.160;2023-06-14T14:21:16;9.40;99.90
44647;DHT22;56315;-33.902;151.160;2023-06-14T14:23:43;9.40;99.90
44647;DHT22;56315;-33.902;151.160;2023-06-14T14:26:12;9.30;99.90
44647;DHT22;56315;-33.902;151.160;2023-06-14T14:28:39;9.20;99.90
44647;DHT22;56315;-33.902;151.160;2023-06-14T14:31:06;9.20;99.90
44647;DHT22;56315;-33.902;151.160;2023-06-14T14:33:33;9.30;99.90
44647;DHT22;56315;-33.902;151.160;2023-06-14T14:36:01;9.20;99.90
44647;DHT22;56315;-33.902;151.160;2023-06-14T14:38:30;9.20;99.90
44647;DHT22;56315;-33.902;151.160;2023-06-14T14:40:57;9.20;99.90
44647;DHT22;56315;-33.902;151.160;2023-06-14T14:43:25;9.20;99.90
44647;DHT22;56315;-33.902;151.160;2023-06-14T14:45:53;9.30;99.90
44647;DHT22;56315;-33.902;151.160;2023-06-14T14:48:20;9.30;99.90
44647;DHT22;56315;-33.902;151.160;2023-06-14T14:50:48;9.30;99.90
44647;DHT22;56315;-33.902;151.160;2023-06-14T14:53:15;9.30;99.90
44647;DHT22;56315;-33.902;151.160;2023-06-14T14:55:45;9.30;99.90
44647;DHT22;56315;-33.902;151.160;2023-06-14T14:58:13;9.30;99.90
44647;DHT22;56315;-33.902;151.160;2023-06-14T15:00:45;9.20;99.90
44647;DHT22;56315;-33.902;151.160;2023-06-14T15:03:13;9.40;99.90
44647;DHT22;56315;-33.902;151.160;2023-06-14T15:05:40;9.40;99.90
44647;DHT22;56315;-33.902;151.160;2023-06-14T15:08:08;9.40;99.90
44647;DHT22;56315;-33.902;151.160;2023-06-14T15:10:39;9.30;99.90
44647;DHT22;56315;-33.902;151.160;2023-06-14T15:13:08;9.30;99.90
44647;DHT22;56315;-33.902;151.160;2023-06-14T15:15:36;9.20;99.90
44647;DHT22;56315;-33.902;151.160;2023-06-14T15:18:03;9.00;99.90
44647;DHT22;56315;-33.902;151.160;2023-06-14T15:20:31;8.80;99.90
44647;DHT22;56315;-33.902;151.160;2023-06-14T15:22:58;8.80;99.90
44647;DHT22;56315;-33.902;151.160;2023-06-14T15:25:27;8.70;99.90
44647;DHT22;56315;-33.902;151.160;2023-06-14T15:27:54;8.60;99.90
44647;DHT22;56315;-33.902;151.160;2023-06-14T15:30:22;8.50;99.90
44647;DHT22;56315;-33.902;151.160;2023-06-14T15:32:49;8.50;99.90
44647;DHT22;56315;-33.902;151.160;2023-06-14T15:35:17;8.60;99.90
44647;DHT22;56315;-33.902;151.160;2023-06-14T15:37:44;8.70;99.90
44647;DHT22;56315;-33.902;151.160;2023-06-14T15:40:12;8.70;99.90
44647;DHT22;56315;-33.902;151.160;2023-06-14T15:42:39;8.70;99.90
44647;DHT22;56315;-33.902;151.160;2023-06-14T15:45:07;8.70;99.90
44647;DHT22;56315;-33.902;151.160;2023-06-14T15:47:34;8.70;99.90
44647;DHT22;56315;-33.902;151.160;2023-06-14T15:50:01;8.80;99.90
44647;DHT22;56315;-33.902;151.160;2023-06-14T15:52:31;8.60;99.90
44647;DHT22;56315;-33.902;151.160;2023-06-14T15:54:58;8.70;99.90
44647;DHT22;56315;-33.902;151.160;2023-06-14T15:57:25;8.70;99.90
44647;DHT22;56315;-33.902;151.160;2023-06-14T15:59:53;8.60;99.90
44647;DHT22;56315;-33.902;151.160;2023-06-14T16:02:20;8.60;99.90
44647;DHT22;56315;-33.902;151.160;2023-06-14T16:04:47;8.60;99.90
44647;DHT22;56315;-33.902;151.160;2023-06-14T16:07:14;8.60;99.90
44647;DHT22;56315;-33.902;151.160;2023-06-14T16:09:42;8.60;99.90
44647;DHT22;56315;-33.902;151.160;2023-06-14T16:12:09;8.50;99.90
44647;DHT22;56315;-33.902;151.160;2023-06-14T16:14:36;8.60;99.90
44647;DHT22;56315;-33.902;151.160;2023-06-14T16:17:04;8.60;99.90
44647;DHT22;56315;-33.902;151.160;2023-06-14T16:19:31;8.50;99.90
44647;DHT22;56315;-33.902;151.160;2023-06-14T16:21:58;8.50;99.90
44647;DHT22;56315;-33.902;151.160;2023-06-14T16:24:27;8.30;99.90
44647;DHT22;56315;-33.902;151.160;2023-06-14T16:26:54;8.20;99.90
44647;DHT22;56315;-33.902;151.160;2023-06-14T16:29:21;8.10;99.90
44647;DHT22;56315;-33.902;151.160;2023-06-14T16:31:48;8.00;99.90
44647;DHT22;56315;-33.902;151.160;2023-06-14T16:34:16;8.00;99.90
44647;DHT22;56315;-33.902;151.160;2023-06-14T16:36:44;7.90;99.90
44647;DHT22;56315;-33.902;151.160;2023-06-14T16:39:11;7.90;99.90
44647;DHT22;56315;-33.902;151.160;2023-06-14T16:41:39;7.90;99.90
44647;DHT22;56315;-33.902;151.160;2023-06-14T16:44:06;7.90;99.90
44647;DHT22;56315;-33.902;151.160;2023-06-14T16:46:34;7.90;99.90
44647;DHT22;56315;-33.902;151.160;2023-06-14T16:49:02;8.00;99.90
44647;DHT22;56315;-33.902;151.160;2023-06-14T16:51:29;8.00;99.90
44647;DHT22;56315;-33.902;151.160;2023-06-14T16:53:56;7.90;99.90
44647;DHT22;56315;-33.902;151.160;2023-06-14T16:56:24;7.90;99.90
44647;DHT22;56315;-33.902;151.160;2023-06-14T16:58:56;7.90;99.90
44647;DHT22;56315;-33.902;151.160;2023-06-14T17:01:25;7.80;99.90
44647;DHT22;56315;-33.902;151.160;2023-06-14T17:03:52;7.80;99.90
44647;DHT22;56315;-33.902;151.160;2023-06-14T17:06:20;7.80;99.90
44647;DHT22;56315;-33.902;151.160;2023-06-14T17:08:50;7.70;99.90
44647;DHT22;56315;-33.902;151.160;2023-06-14T17:11:18;7.70;99.90